createdAt,value
2023-02-19T00:11:41.142Z,10.1
2023-02-19T00:21:41.495Z,10.1
2023-02-19T00:51:42.883Z,10.1
2023-02-19T01:11:44.063Z,10.1
2023-02-19T01:41:46.192Z,10
2023-02-19T02:01:47.851Z,9.9
2023-02-19T02:11:48.827Z,9.9
2023-02-19T02:41:50.816Z,9.7
2023-02-19T02:51:51.891Z,9.7
2023-02-19T03:01:52.864Z,9.6
2023-02-19T03:11:53.204Z,9.6
2023-02-19T03:21:53.489Z,9.6
2023-02-19T03:31:53.912Z,9.6
2023-02-19T03:41:54.223Z,9.5
2023-02-19T03:51:54.466Z,9.5
2023-02-19T04:01:55.345Z,9.4
2023-02-19T04:11:56.333Z,9.4
2023-02-19T04:21:57.044Z,9.3
2023-02-19T04:31:57.319Z,9.3
2023-02-19T04:41:57.405Z,9.3
2023-02-19T05:01:59.420Z,9.3
2023-02-19T05:11:59.648Z,9.3
2023-02-19T05:22:00.214Z,9.3
2023-02-19T05:32:01.167Z,9.2
2023-02-19T05:42:01.921Z,9.2
2023-02-19T06:02:03.204Z,9.1
2023-02-19T06:12:04.150Z,9.1
2023-02-19T06:22:04.599Z,9.1
2023-02-19T06:32:05.276Z,9.1
2023-02-19T06:42:05.889Z,9
2023-02-19T06:52:06.658Z,9
2023-02-19T07:22:07.912Z,9
2023-02-19T07:32:09.015Z,9
2023-02-19T07:42:09.083Z,8.9
2023-02-19T08:02:10.703Z,8.9
2023-02-19T08:12:11.619Z,8.9
2023-02-19T08:22:12.484Z,9
2023-02-19T08:32:12.719Z,9.1
2023-02-19T08:42:13.741Z,9.1
2023-02-19T08:52:14.654Z,9
2023-02-19T09:02:15.280Z,9.1
2023-02-19T09:12:16.110Z,9.2
2023-02-19T09:22:16.648Z,9.3
2023-02-19T09:32:19.044Z,9.3
2023-02-19T09:42:17.696Z,9.3
2023-02-19T10:02:18.746Z,9.1
2023-02-19T10:12:19.178Z,9.1
2023-02-19T10:22:19.360Z,9.2
2023-02-19T10:32:19.631Z,8.1
2023-02-19T10:52:20.606Z,7.4
2023-02-19T11:02:21.161Z,7.4
2023-02-19T11:12:21.864Z,7.4
2023-02-19T11:22:22.302Z,7.5
2023-02-19T11:32:23.253Z,7.5
2023-02-19T11:42:23.795Z,7.4
2023-02-19T11:52:24.620Z,7.4
2023-02-19T12:12:26.611Z,7.3
2023-02-19T12:22:27.583Z,7.4
2023-02-19T12:32:28.095Z,7.6
2023-02-19T12:42:28.454Z,7.6
2023-02-19T12:52:29.261Z,7.4
2023-02-19T13:02:29.456Z,7.5
2023-02-19T13:12:29.585Z,7.6
2023-02-19T13:42:31.604Z,7.7
2023-02-19T13:52:32.646Z,7.8
2023-02-19T14:02:33.638Z,7.7
2023-02-19T14:12:34.259Z,7.8
2023-02-19T14:32:35.111Z,8
2023-02-19T14:42:36.118Z,8.1
2023-02-19T14:52:36.544Z,8
2023-02-19T15:02:36.728Z,7.8
2023-02-19T15:12:37.092Z,7.8
2023-02-19T15:22:37.836Z,7.8
2023-02-19T15:52:39.948Z,7.8
2023-02-19T16:02:40.180Z,7.7
2023-02-19T16:12:40.814Z,7.5
2023-02-19T16:22:41.151Z,7.5
2023-02-19T16:32:41.957Z,7.5
2023-02-19T16:42:42.543Z,7.5
2023-02-19T17:12:43.541Z,7.4
2023-02-19T17:22:44.307Z,7.2
2023-02-19T17:32:45.268Z,7.1
2023-02-19T17:42:45.749Z,7
2023-02-19T18:02:47.379Z,6.7
2023-02-19T18:52:50.905Z,6.6
2023-02-19T19:02:51.558Z,6.5
2023-02-19T19:12:52.170Z,6.5
2023-02-19T19:32:53.802Z,6.4
2023-02-19T20:02:56.057Z,6.4
2023-02-19T21:12:59.317Z,6.1
2023-02-19T21:43:01.211Z,6
2023-02-19T21:53:01.774Z,6.1
2023-02-19T22:33:04.184Z,6
2023-02-19T22:43:04.306Z,6
2023-02-19T22:53:04.875Z,5.8
2023-02-19T23:03:05.000Z,5.7
2023-02-19T23:13:05.666Z,5.6
2023-02-19T23:23:05.898Z,5.5
2023-02-19T23:33:06.417Z,5.4
2023-02-19T23:43:07.176Z,5.4
2023-02-19T23:53:08.124Z,5.4
